x

East Bahamas - 335 Nm East Of San Salvador Is, Bahamas (41046) Wave Buoy

3:50am - Sun 21st Dec 2014 All times are UTC.

  • Sig Wave height 4.3ft
  • Swell Direction
  • Peak Period 9s
  • Average Period 6s
  • Wind
    13mph, 18mph gusts
  • Sea Temp 80°f
  • Air Temp 77°f
  • Sea Pressure 1019.8mb

More Historic Weather Station data

Upgrade to MSW Pro to gain access to the past 30 days of data for over 8000 Wavebouys and Weather Stations around the globe.

Join Pro

Comparision Forecast

View Surf forecast
   
Sun 12/21 3:50am 4.5ft 9s 6s 13 18 mph 1019.8mb 80f 77f
2:50am 5ft 10s 6s 13 18 mph 1019.8mb 80f 77f
1:50am 5ft 10s 7s 11 13 mph 1019.9mb 80f 77f
12:50am 5ft 9s 7s 11 13 mph 1019.9mb 80f 77f
Sat 12/20 11:50pm 4.5ft 10s 6s 11 13 mph 1019.3mb 80f 77f
10:50pm 4.5ft 10s 6s 11 13 mph 1018.8mb 80f 77f
9:50pm 5ft 9s 7s 11 13 mph 1018.4mb 80f 77f
8:50pm 4.5ft 10s 6s 11 13 mph 1018.1mb 80f 77f
7:50pm 4ft 10s 6s 11 13 mph 1017.7mb 80f 77f
6:50pm 4.5ft 11s 6s 11 13 mph 1017.9mb 80f 77f
5:50pm 4.5ft 11s 6s 11 13 mph 1018.4mb 80f 77f
4:50pm 4.5ft 10s 6s 11 16 mph 1019mb 80f 77f
3:50pm 4.5ft 10s 6s 13 16 mph 1019.6mb 80f 77f
2:50pm 4.5ft 11s 6s 13 16 mph 1019.9mb 80f 77f
1:50pm 4ft 11s 6s 11 16 mph 1019.8mb 80f 77f
12:50pm 4.5ft 10s 6s 11 16 mph 1019.2mb 80f 77f
11:50am 4ft 11s 6s 11 13 mph 1018.6mb 80f 77f
10:50am 4ft 10s 6s 11 13 mph 1017.6mb 80f 77f
9:50am 4.5ft 9s 6s 11 13 mph 1017.2mb 80f 77f
8:50am 4.5ft 10s 7s 11 13 mph 1016.9mb 80f 77f
7:50am 4.5ft 10s 6s 11 16 mph 1017mb 80f 77f
6:50am 4.5ft 10s 6s 9 13 mph 1017.4mb 80f 77f
5:50am 4.5ft 11s 6s 11 13 mph 1017.8mb 80f 77f
4:50am 4.5ft 10s 6s 11 13 mph 1018.1mb 80f 77f
3:50am 4ft 11s 6s 13 16 mph 1018.2mb 80f 77f
2:50am 4ft 10s 6s 13 16 mph 1018.7mb 80f 77f
1:50am 4.5ft 10s 6s 11 13 mph 1018.8mb 80f 77f
12:50am 4ft 11s 6s 13 16 mph 1018.2mb 80f 77f
Fri 12/19 11:50pm 3.5ft 10s 6s 11 13 mph 1018.2mb 80f 77f
10:50pm 4ft 11s 6s 9 11 mph 1017.8mb 80f 77f
8:50pm 4ft 11s 6s 7 11 mph 1016.8mb 80f 77f
7:50pm 4ft 10s 7s 9 11 mph 1016.4mb 80f 77f
6:50pm 4ft 10s 7s 11 13 mph 1016.8mb 80f 77f
5:50pm 3.5ft 11s 7s 9 11 mph 1017.1mb 80f 77f
4:50pm 3.5ft 9s 6s 7 11 mph 1017.9mb 80f 77f
3:50pm 4.5ft 10s 7s 7 11 mph 1018.4mb 80f 77f
2:50pm 4ft 9s 7s 7 9 mph 1018.8mb 80f 77f
1:50pm 4.5ft 9s 7s 7 9 mph 1018.7mb 80f 77f
12:50pm 4ft 9s 7s 7 11 mph 1017.9mb 80f 76f
11:50am 4.5ft 10s 7s 7 9 mph 1017.2mb 80f 76f
10:50am 4.5ft 9s 8s 7 9 mph 1016.7mb 80f 76f
9:50am 4.5ft 9s 8s 7 9 mph 1016.5mb 80f 76f
8:50am 3.5ft 9s 8s 7 9 mph 1016.7mb 80f 76f
7:50am 4ft 9s 8s 9 16 mph 1016.9mb 80f 76f
6:50am 4ft 10s 8s 7 9 mph 1017.3mb 80f 75f
5:50am 3.5ft 10s 8s 7 9 mph 1017.7mb 80f 76f
4:50am 3.5ft 11s 8s 4 7 mph 1018mb 80f 76f
3:50am 4ft 10s 8s 4 9 mph 1018.4mb 80f 76f
2:50am 3.5ft 10s 8s 4 7 mph 1018.9mb 80f 76f
1:50am 3.5ft 11s 8s 7 9 mph 1019mb 80f 76f
12:50am 3.5ft 10s 8s 4 7 mph 1018.6mb 80f 76f
Thu 12/18 11:50pm 4ft 11s 8s 7 11 mph 1018.4mb 80f 76f
10:50pm 3.5ft 11s 8s 9 11 mph 1018.2mb 80f 76f
9:50pm 3.5ft 10s 8s 7 9 mph 1017.8mb 80f 76f
8:50pm 3ft 10s 7s 4 7 mph 1017.5mb 80f 77f
7:50pm 3.5ft 9s 7s 4 7 mph 1017.6mb 80f 76f
6:50pm 3.5ft 10s 8s 4 7 mph 1017.6mb 80f 76f
5:50pm 3.5ft 10s 8s 4 9 mph 1018.2mb 80f 76f
4:50pm 3.5ft 10s 8s 7 9 mph 1019mb 80f 76f
3:50pm 3.5ft 10s 7s 7 11 mph 1020.3mb 80f 76f
2:50pm 3.5ft 9s 7s 7 9 mph 1020.5mb 80f 76f
1:50pm 3.5ft 10s 7s 7 9 mph 1020.1mb 80f 76f
12:50pm 3.5ft 10s 7s 7 11 mph 1019.8mb 80f 76f
11:50am 4ft 10s 8s 9 11 mph 1018.9mb 80f 76f
10:50am 4ft 9s 8s 9 13 mph 1018.3mb 80f 75f
9:50am 4ft 10s 8s 7 9 mph 1018.4mb 80f 75f
8:50am 3.5ft 9s 8s 9 13 mph 1018.3mb 80f 75f
7:50am 4.5ft 10s 8s 7 11 mph 1018.4mb 80f 75f
6:50am 4ft 10s 8s 9 11 mph 1018.7mb 80f 75f
5:50am 4ft 10s 8s 4 7 mph 1019.2mb 80f 75f
4:50am 4ft 10s 8s 4 9 mph 1019.6mb 80f 75f
3:50am 4ft 10s 7s 4 7 mph 1019.7mb 80f 75f
2:50am 4.5ft 11s 8s 7 9 mph 1019.9mb 80f 76f
1:50am 4.5ft 10s 8s 7 11 mph 1020mb 80f 76f
12:50am 4.5ft 11s 8s 7 11 mph 1019.8mb 80f 76f
Wed 12/17 11:50pm 4.5ft 11s 8s 7 9 mph 1019.2mb 80f 76f
10:50pm 3.5ft 10s 7s 7 11 mph 1018.8mb 80f 76f
9:50pm 4ft 11s 8s 9 11 mph 1018.4mb 80f 76f
8:50pm 4.5ft 8s 7s 7 9 mph 1018.1mb 80f 76f
7:50pm 4ft 11s 7s 7 9 mph 1017.7mb 80f 76f
6:50pm 4.5ft 9s 7s 2 4 mph 1018mb 80f 76f
5:50pm 4.5ft 9s 7s 4 9 mph 1018.3mb 80f 76f
4:50pm 4.5ft 11s 7s 4 7 mph 1019.1mb 80f 76f
3:50pm 3.5ft 9s 7s 4 7 mph 1020.3mb 80f 76f
2:50pm 4.5ft 9s 7s 4 7 mph 1020.8mb 79f 76f
1:50pm 4ft 10s 7s 7 9 mph 1020.7mb 79f 75f
12:50pm 4.5ft 9s 7s 2 4 mph 1020.3mb 79f 77f
11:50am 4.5ft 10s 7s 7 9 mph 1019.8mb 79f 76f
10:50am 4.5ft 10s 7s 7 9 mph 1019.2mb 79f 76f
9:50am 4.5ft 9s 7s 9 11 mph 1018.6mb 79f 75f
8:50am 4.5ft 10s 7s 9 11 mph 1018.3mb 79f 75f
7:50am 4.5ft 9s 6s 11 13 mph 1018.3mb 79f 75f
6:50am 4.5ft 10s 6s 9 13 mph 1018.9mb 79f 75f